Time;durP1;ratioP1;P1;durP2;ratioP2;P2;SDS_P1;SDS_P2;PMS_P1;PMS_P2;Temp;Humidity;BMP_temperature;BMP_pressure;BME280_temperature;BME280_humidity;BME280_pressure;Samples;Min_cycle;Max_cycle;Signal;HPM_P1;HPM_P2
2022/05/04 00:01:01;;;;;;;0.00;0.00;;;8.60;99.90;;;;;;5003236;28;20652;-62
2022/05/04 00:03:27;;;;;;;0.00;0.00;;;8.70;99.90;;;;;;5002811;28;20050;-62
2022/05/04 00:05:52;;;;;;;0.00;0.00;;;8.60;99.90;;;;;;5003045;28;20058;-63
2022/05/04 00:08:18;;;;;;;0.00;0.00;;;8.40;99.90;;;;;;5002209;28;20050;-62
2022/05/04 00:10:44;;;;;;;0.00;0.00;;;8.40;99.90;;;;;;5003093;28;20042;-62
2022/05/04 00:13:10;;;;;;;0.00;0.00;;;8.20;99.90;;;;;;5002357;28;20048;-64
2022/05/04 00:15:36;;;;;;;0.00;0.00;;;8.10;99.90;;;;;;5002711;28;20042;-62
2022/05/04 00:18:02;;;;;;;0.00;0.00;;;8.00;99.90;;;;;;5003100;28;20546;-62
2022/05/04 00:20:28;;;;;;;0.00;0.00;;;7.90;99.90;;;;;;5002588;28;20263;-62
2022/05/04 00:22:54;;;;;;;0.00;0.00;;;7.90;99.90;;;;;;5002843;28;20054;-63
2022/05/04 00:25:19;;;;;;;0.00;0.00;;;7.90;99.90;;;;;;5001980;28;20597;-62
2022/05/04 00:27:45;;;;;;;0.00;0.00;;;7.80;99.90;;;;;;5002280;28;20053;-62
2022/05/04 00:30:11;;;;;;;0.00;0.00;;;7.80;99.90;;;;;;5002802;28;20382;-63
2022/05/04 00:32:37;;;;;;;0.00;0.00;;;7.90;99.90;;;;;;5002956;28;20100;-62
2022/05/04 00:35:02;;;;;;;0.00;0.00;;;8.00;99.90;;;;;;5002551;28;20715;-62
2022/05/04 00:37:28;;;;;;;0.00;0.00;;;8.00;99.90;;;;;;5001239;28;20045;-62
2022/05/04 00:39:54;;;;;;;0.00;0.00;;;8.00;99.90;;;;;;5002716;28;20054;-62
2022/05/04 00:42:21;;;;;;;0.00;0.00;;;8.10;99.90;;;;;;5001278;28;20252;-62
2022/05/04 00:44:49;;;;;;;0.00;0.00;;;8.50;99.90;;;;;;5002708;28;20044;-62
2022/05/04 00:47:16;;;;;;;0.00;0.00;;;8.20;99.90;;;;;;5010200;28;20061;-62
2022/05/04 00:49:46;;;;;;;0.00;0.00;;;8.20;99.90;;;;;;5021962;28;20073;-62
2022/05/04 00:52:13;;;;;;;0.00;0.00;;;8.20;99.90;;;;;;5022122;28;20072;-63
2022/05/04 00:54:41;;;;;;;0.00;0.00;;;8.20;99.90;;;;;;5022283;28;20108;-62
2022/05/04 00:57:09;;;;;;;0.00;0.00;;;8.10;99.90;;;;;;5021872;28;20046;-62
2022/05/04 00:59:37;;;;;;;0.00;0.00;;;8.20;99.90;;;;;;5003919;28;20056;-62
2022/05/04 01:02:04;;;;;;;0.00;0.00;;;8.40;99.90;;;;;;5020922;28;20129;-62
2022/05/04 01:04:29;;;;;;;0.00;0.00;;;8.10;99.90;;;;;;5020486;28;20908;-63
2022/05/04 01:06:55;;;;;;;0.00;0.00;;;8.10;99.90;;;;;;5020879;28;20136;-63
2022/05/04 01:09:21;;;;;;;0.00;0.00;;;8.10;99.90;;;;;;5021702;28;20115;-63
2022/05/04 01:11:47;;;;;;;0.00;0.00;;;8.00;99.90;;;;;;5020766;28;20033;-62
2022/05/04 01:14:15;;;;;;;0.00;0.00;;;8.00;99.90;;;;;;5021455;28;20037;-63
2022/05/04 01:16:43;;;;;;;0.00;0.00;;;8.00;99.90;;;;;;5020142;28;20397;-63
2022/05/04 01:19:10;;;;;;;0.00;0.00;;;8.10;99.90;;;;;;5021661;28;20648;-63
2022/05/04 01:21:36;;;;;;;0.00;0.00;;;8.20;99.90;;;;;;5021634;28;20049;-62
2022/05/04 01:24:03;;;;;;;0.00;0.00;;;8.20;99.90;;;;;;5020797;28;20389;-63
2022/05/04 01:26:29;;;;;;;0.00;0.00;;;8.20;99.90;;;;;;5021054;28;20048;-62
2022/05/04 01:28:54;;;;;;;0.00;0.00;;;9.20;99.90;;;;;;5020714;28;20488;-62
2022/05/04 01:31:20;;;;;;;0.00;0.00;;;8.40;99.90;;;;;;5019530;28;20033;-62
2022/05/04 01:33:46;;;;;;;0.00;0.00;;;9.10;99.90;;;;;;5020851;28;20076;-63
2022/05/04 01:36:11;;;;;;;0.00;0.00;;;8.20;99.90;;;;;;5020923;28;20132;-62
2022/05/04 01:38:37;;;;;;;0.00;0.00;;;8.40;99.90;;;;;;5021473;28;20116;-62
2022/05/04 01:41:03;;;;;;;0.00;0.00;;;8.20;99.90;;;;;;5020802;28;20081;-62
2022/05/04 01:43:29;;;;;;;0.00;0.00;;;8.00;99.90;;;;;;5020120;28;20029;-62
2022/05/04 01:45:56;;;;;;;0.00;0.00;;;9.00;99.90;;;;;;5014624;28;20140;-62
2022/05/04 01:48:23;;;;;;;0.00;0.00;;;8.20;99.90;;;;;;5006583;28;20053;-62
2022/05/04 01:50:49;;;;;;;0.00;0.00;;;7.90;99.90;;;;;;5000380;28;20030;-62
2022/05/04 01:53:14;;;;;;;0.00;0.00;;;7.90;99.90;;;;;;5001171;28;20141;-63
2022/05/04 01:55:41;;;;;;;0.00;0.00;;;7.80;99.90;;;;;;5001374;28;20417;-63
2022/05/04 01:58:07;;;;;;;0.00;0.00;;;7.80;99.90;;;;;;4999643;28;20100;-62
2022/05/04 02:00:34;;;;;;;0.00;0.00;;;7.90;99.90;;;;;;5000947;28;20489;-62
2022/05/04 02:03:00;;;;;;;0.00;0.00;;;7.80;99.90;;;;;;5000970;28;20065;-62
2022/05/04 02:05:27;;;;;;;0.00;0.00;;;7.80;99.90;;;;;;5000713;28;20233;-62
2022/05/04 02:07:54;;;;;;;0.00;0.00;;;7.90;99.90;;;;;;5000456;28;20463;-62
2022/05/04 02:10:20;;;;;;;0.00;0.00;;;8.00;99.90;;;;;;5000737;28;20053;-62
2022/05/04 02:12:45;;;;;;;0.00;0.00;;;8.00;99.90;;;;;;5000288;28;20045;-62
2022/05/04 02:15:11;;;;;;;0.00;0.00;;;7.90;99.90;;;;;;4999957;28;20112;-63
2022/05/04 02:17:38;;;;;;;0.00;0.00;;;8.50;99.90;;;;;;5001031;28;20429;-62
2022/05/04 02:20:05;;;;;;;0.00;0.00;;;7.90;99.90;;;;;;5000627;28;20455;-62
2022/05/04 02:22:31;;;;;;;0.00;0.00;;;8.00;99.90;;;;;;5001018;28;20054;-62
2022/05/04 02:24:57;;;;;;;0.00;0.00;;;8.00;99.90;;;;;;5000264;28;20049;-62
2022/05/04 02:27:22;;;;;;;0.00;0.00;;;8.00;99.90;;;;;;4999857;28;20456;-62
2022/05/04 02:29:49;;;;;;;0.00;0.00;;;8.00;99.90;;;;;;5000834;28;20069;-62
2022/05/04 02:32:15;;;;;;;0.00;0.00;;;8.00;99.90;;;;;;4999910;28;20397;-62
2022/05/04 02:40:11;;;;;;;0.00;0.00;;;8.70;99.90;;;;;;5000301;28;20503;-63
2022/05/04 02:42:37;;;;;;;0.00;0.00;;;7.90;99.90;;;;;;4999934;28;20092;-62
2022/05/04 02:45:05;;;;;;;0.00;0.00;;;7.80;99.90;;;;;;5001126;28;20033;-62
2022/05/04 02:47:31;;;;;;;0.00;0.00;;;7.60;99.90;;;;;;5009069;28;20089;-62
2022/05/04 02:49:56;;;;;;;0.00;0.00;;;7.60;99.90;;;;;;5000623;28;20088;-62
2022/05/04 02:52:22;;;;;;;0.00;0.00;;;7.60;99.90;;;;;;5000142;28;20485;-63
2022/05/04 02:54:47;;;;;;;0.00;0.00;;;8.70;99.90;;;;;;4999641;28;20064;-62
2022/05/04 02:57:13;;;;;;;0.00;0.00;;;7.70;99.90;;;;;;4999585;28;20049;-63
2022/05/04 02:59:38;;;;;;;0.00;0.00;;;7.70;99.90;;;;;;4999331;28;20058;-62
2022/05/04 03:04:48;;;;;;;0.00;0.00;;;7.50;99.90;;;;;;5000495;28;20112;-62
2022/05/04 03:07:14;;;;;;;0.00;0.00;;;7.50;99.90;;;;;;4999818;28;20460;-62
2022/05/04 03:09:40;;;;;;;0.00;0.00;;;7.40;99.90;;;;;;4999902;28;20046;-63
2022/05/04 03:12:06;;;;;;;0.00;0.00;;;7.40;99.90;;;;;;5004011;28;20045;-62
2022/05/04 03:14:32;;;;;;;0.00;0.00;;;7.40;99.90;;;;;;5003005;28;20396;-62
2022/05/04 03:16:57;;;;;;;0.00;0.00;;;7.40;99.90;;;;;;5004210;28;20038;-62
2022/05/04 03:19:24;;;;;;;0.00;0.00;;;7.40;99.90;;;;;;5003568;28;20084;-62
2022/05/04 03:21:51;;;;;;;0.00;0.00;;;7.40;99.90;;;;;;5003859;28;20559;-62
2022/05/04 03:24:17;;;;;;;0.00;0.00;;;7.40;99.90;;;;;;5003561;28;20046;-62
2022/05/04 03:26:43;;;;;;;0.00;0.00;;;7.30;99.90;;;;;;5002881;28;20038;-62
2022/05/04 03:29:09;;;;;;;0.00;0.00;;;7.40;99.90;;;;;;5004257;28;20350;-62
2022/05/04 03:31:36;;;;;;;0.00;0.00;;;8.20;99.90;;;;;;5003988;28;20088;-62
2022/05/04 03:34:02;;;;;;;0.00;0.00;;;7.40;99.90;;;;;;5003851;28;20141;-62
2022/05/04 03:36:28;;;;;;;0.00;0.00;;;8.20;99.90;;;;;;5002894;28;20141;-62
2022/05/04 03:38:54;;;;;;;0.00;0.00;;;7.40;99.90;;;;;;5003775;28;20049;-62
2022/05/04 03:41:21;;;;;;;0.00;0.00;;;7.50;99.90;;;;;;5002857;28;20057;-62
2022/05/04 03:43:47;;;;;;;0.00;0.00;;;7.50;99.90;;;;;;5003474;28;20115;-62
2022/05/04 03:46:27;;;;;;;0.00;0.00;;;7.40;99.90;;;;;;5009354;28;20054;-63
2022/05/04 03:48:58;;;;;;;0.00;0.00;;;7.40;99.90;;;;;;5003377;28;20041;-62
2022/05/04 03:51:24;;;;;;;0.00;0.00;;;7.70;99.90;;;;;;5002625;28;20050;-62
2022/05/04 03:53:52;;;;;;;0.00;0.00;;;7.90;99.90;;;;;;5003504;28;20404;-62
2022/05/04 03:56:19;;;;;;;0.00;0.00;;;7.50;99.90;;;;;;5002643;28;20050;-62
2022/05/04 03:58:45;;;;;;;0.00;0.00;;;7.50;99.90;;;;;;5002175;28;20704;-62
2022/05/04 04:01:12;;;;;;;0.00;0.00;;;8.30;99.90;;;;;;5002574;28;20133;-61
2022/05/04 04:03:38;;;;;;;0.00;0.00;;;7.40;99.90;;;;;;5003320;28;20059;-62
2022/05/04 04:06:04;;;;;;;0.00;0.00;;;7.40;99.90;;;;;;5002672;28;20050;-62
2022/05/04 04:08:30;;;;;;;0.00;0.00;;;7.40;99.90;;;;;;5002329;28;20050;-62
2022/05/04 04:10:57;;;;;;;0.00;0.00;;;7.40;99.90;;;;;;5003161;28;20125;-62
2022/05/04 04:13:23;;;;;;;0.00;0.00;;;7.50;99.90;;;;;;5002490;28;20052;-62
2022/05/04 04:15:51;;;;;;;0.00;0.00;;;7.50;99.90;;;;;;5003010;28;20042;-62
2022/05/04 04:18:18;;;;;;;0.00;0.00;;;8.50;99.90;;;;;;5002701;28;20424;-62
2022/05/04 04:23:28;;;;;;;0.00;0.00;;;7.80;99.90;;;;;;5001841;28;20189;-62
2022/05/04 04:25:54;;;;;;;0.00;0.00;;;7.60;99.90;;;;;;5003150;28;20121;-62
2022/05/04 04:28:20;;;;;;;0.00;0.00;;;7.70;99.90;;;;;;5001950;28;20040;-62
2022/05/04 04:30:46;;;;;;;0.00;0.00;;;7.70;99.90;;;;;;5002309;28;20180;-62
2022/05/04 04:33:12;;;;;;;0.00;0.00;;;7.70;99.90;;;;;;5002229;28;20182;-63
2022/05/04 04:35:37;;;;;;;0.00;0.00;;;7.80;99.90;;;;;;5003185;28;20089;-62
2022/05/04 04:38:04;;;;;;;0.00;0.00;;;7.80;99.90;;;;;;5002685;28;20042;-62
2022/05/04 04:40:30;;;;;;;0.00;0.00;;;7.80;99.90;;;;;;5001865;28;20056;-62
2022/05/04 04:42:56;;;;;;;0.00;0.00;;;7.90;99.90;;;;;;5001827;28;20046;-62
2022/05/04 04:45:22;;;;;;;0.00;0.00;;;8.00;99.90;;;;;;5004618;28;20045;-62
2022/05/04 04:47:48;;;;;;;0.00;0.00;;;8.00;99.90;;;;;;5010848;28;20497;-61
2022/05/04 04:50:14;;;;;;;0.00;0.00;;;7.90;99.90;;;;;;5001553;28;20080;-61
2022/05/04 04:52:41;;;;;;;0.00;0.00;;;7.80;99.90;;;;;;5002503;28;20038;-65
2022/05/04 04:55:07;;;;;;;0.00;0.00;;;7.80;99.90;;;;;;5001654;28;20049;-63
2022/05/04 04:57:33;;;;;;;0.00;0.00;;;7.70;99.90;;;;;;5000699;28;20153;-63
2022/05/04 04:59:59;;;;;;;0.00;0.00;;;7.70;99.90;;;;;;4984664;28;20121;-61
2022/05/04 05:02:25;;;;;;;0.00;0.00;;;7.70;99.90;;;;;;5001803;28;20049;-61
2022/05/04 05:04:51;;;;;;;0.00;0.00;;;7.70;99.90;;;;;;5002619;28;20161;-61
2022/05/04 05:07:16;;;;;;;0.00;0.00;;;7.80;99.90;;;;;;5000975;28;20041;-61
2022/05/04 05:09:42;;;;;;;0.00;0.00;;;7.80;99.90;;;;;;5002332;28;20378;-61
2022/05/04 05:12:08;;;;;;;0.00;0.00;;;7.90;99.90;;;;;;5001717;28;20113;-61
2022/05/04 05:17:18;;;;;;;0.00;0.00;;;8.00;99.90;;;;;;5001561;28;20042;-61
2022/05/04 05:19:44;;;;;;;0.00;0.00;;;7.90;99.90;;;;;;5000289;28;20045;-61
2022/05/04 05:22:09;;;;;;;0.00;0.00;;;8.10;99.90;;;;;;5001343;28;20050;-62
2022/05/04 05:24:35;;;;;;;0.00;0.00;;;8.00;99.90;;;;;;5002126;28;20427;-61
2022/05/04 05:27:01;;;;;;;0.00;0.00;;;8.10;99.90;;;;;;5001148;28;20513;-61
2022/05/04 05:29:26;;;;;;;0.00;0.00;;;8.10;99.90;;;;;;5001392;28;20070;-61
2022/05/04 05:31:52;;;;;;;0.00;0.00;;;8.10;99.90;;;;;;5001164;28;20050;-61
2022/05/04 05:34:17;;;;;;;0.00;0.00;;;7.90;99.90;;;;;;5000571;28;20689;-61
2022/05/04 05:36:44;;;;;;;0.00;0.00;;;8.10;99.90;;;;;;5001306;28;20042;-61
2022/05/04 05:39:10;;;;;;;0.00;0.00;;;8.20;99.90;;;;;;5000493;28;20129;-62
2022/05/04 05:41:36;;;;;;;0.00;0.00;;;8.20;99.90;;;;;;5000967;28;20124;-61
2022/05/04 05:44:01;;;;;;;0.00;0.00;;;8.30;99.90;;;;;;5001630;28;20053;-61
2022/05/04 05:46:29;;;;;;;0.00;0.00;;;8.30;99.90;;;;;;5010474;28;20037;-61
2022/05/04 05:48:55;;;;;;;0.00;0.00;;;8.40;99.90;;;;;;5000665;28;20049;-61
2022/05/04 05:51:20;;;;;;;0.00;0.00;;;8.40;99.90;;;;;;5001267;28;20400;-61
2022/05/04 05:53:46;;;;;;;0.00;0.00;;;8.40;99.90;;;;;;5001415;28;20409;-61
2022/05/04 05:56:11;;;;;;;0.00;0.00;;;8.50;99.90;;;;;;5000140;28;20049;-61
2022/05/04 05:58:37;;;;;;;0.00;0.00;;;8.60;99.90;;;;;;5001501;28;20185;-61
2022/05/04 06:01:03;;;;;;;0.00;0.00;;;8.60;99.90;;;;;;5001305;28;20046;-62
2022/05/04 06:03:29;;;;;;;0.00;0.00;;;8.60;99.90;;;;;;5001036;28;20120;-61
2022/05/04 06:05:55;;;;;;;0.00;0.00;;;8.60;99.90;;;;;;5000362;28;20100;-61
2022/05/04 06:08:21;;;;;;;0.00;0.00;;;8.60;99.90;;;;;;5000841;28;20077;-62
2022/05/04 06:10:46;;;;;;;0.00;0.00;;;8.60;99.90;;;;;;5000784;28;20092;-65
2022/05/04 06:13:12;;;;;;;0.00;0.00;;;8.70;99.90;;;;;;5000467;28;20038;-62
2022/05/04 06:15:38;;;;;;;0.00;0.00;;;8.80;99.90;;;;;;5000649;28;20563;-61
2022/05/04 06:18:04;;;;;;;0.00;0.00;;;8.50;99.90;;;;;;5000881;28;20022;-61
2022/05/04 06:20:31;;;;;;;0.00;0.00;;;8.50;99.90;;;;;;5000537;28;20103;-61
2022/05/04 06:22:57;;;;;;;0.00;0.00;;;8.60;99.90;;;;;;5000189;28;20061;-62
2022/05/04 06:25:23;;;;;;;0.00;0.00;;;8.60;99.90;;;;;;5000605;28;20038;-62
2022/05/04 06:27:48;;;;;;;0.00;0.00;;;8.70;99.90;;;;;;4999963;28;20265;-60
2022/05/04 06:36:00;;;;;;;0.00;0.00;;;8.70;99.90;;;;;;4958391;28;20146;-61
2022/05/04 06:38:25;;;;;;;0.00;0.00;;;8.70;99.90;;;;;;4991475;28;20140;-62
2022/05/04 06:40:51;;;;;;;0.00;0.00;;;8.70;99.90;;;;;;5000072;28;20045;-61
2022/05/04 06:43:16;;;;;;;0.00;0.00;;;8.70;99.90;;;;;;4999725;28;20034;-61
2022/05/04 06:45:42;;;;;;;0.00;0.00;;;8.70;99.90;;;;;;5002565;28;20049;-61
2022/05/04 06:48:08;;;;;;;0.00;0.00;;;8.70;99.90;;;;;;5008448;28;20045;-61
2022/05/04 06:50:33;;;;;;;0.00;0.00;;;8.70;99.90;;;;;;5000049;28;20067;-60
2022/05/04 06:52:59;;;;;;;0.00;0.00;;;8.70;99.90;;;;;;4999918;28;20041;-60
2022/05/04 06:55:25;;;;;;;0.00;0.00;;;8.80;99.90;;;;;;5000456;28;20044;-60
2022/05/04 06:57:50;;;;;;;0.00;0.00;;;9.00;99.90;;;;;;4999912;28;20046;-62
2022/05/04 07:00:16;;;;;;;0.00;0.00;;;9.10;99.90;;;;;;4999680;28;20049;-63
2022/05/04 07:02:42;;;;;;;0.00;0.00;;;9.20;99.90;;;;;;5000315;28;20049;-61
2022/05/04 07:05:08;;;;;;;0.00;0.00;;;9.20;99.90;;;;;;5000656;28;20049;-61
2022/05/04 07:07:34;;;;;;;0.00;0.00;;;9.30;99.90;;;;;;5000280;28;20050;-63
2022/05/04 07:10:00;;;;;;;0.00;0.00;;;9.20;99.90;;;;;;4999619;28;20058;-72
2022/05/04 07:12:26;;;;;;;0.00;0.00;;;9.50;99.90;;;;;;4999358;28;20074;-61
2022/05/04 07:14:53;;;;;;;0.00;0.00;;;9.30;99.90;;;;;;5000089;28;20120;-63
2022/05/04 07:17:19;;;;;;;0.00;0.00;;;10.20;99.90;;;;;;5000000;28;20046;-60
2022/05/04 07:19:46;;;;;;;0.00;0.00;;;9.40;99.90;;;;;;4999329;28;20401;-61
2022/05/04 07:22:12;;;;;;;0.00;0.00;;;9.40;99.90;;;;;;5000024;28;20049;-63
2022/05/04 07:24:38;;;;;;;0.08;0.08;;;9.60;99.90;;;;;;5000473;28;20054;-61
2022/05/04 07:27:05;;;;;;;0.00;0.00;;;9.40;99.90;;;;;;4998708;28;20042;-61
2022/05/04 07:29:31;;;;;;;0.00;0.00;;;9.50;99.90;;;;;;5012061;28;20053;-63
2022/05/04 07:31:57;;;;;;;0.00;0.00;;;10.40;99.90;;;;;;5019680;28;20037;-61
2022/05/04 07:34:22;;;;;;;0.00;0.00;;;9.40;99.90;;;;;;5017296;28;20048;-62
2022/05/04 07:36:48;;;;;;;0.00;0.00;;;9.40;99.90;;;;;;5017101;28;20819;-62
2022/05/04 07:44:42;;;;;;;0.00;0.00;;;9.60;99.90;;;;;;5018186;28;20073;-64
2022/05/04 07:47:08;;;;;;;0.00;0.00;;;9.60;99.90;;;;;;5011085;28;20520;-63
2022/05/04 07:49:33;;;;;;;0.00;0.00;;;9.60;99.90;;;;;;4997842;28;20112;-64
2022/05/04 07:51:59;;;;;;;0.00;0.00;;;9.50;99.90;;;;;;5000176;28;20092;-64
2022/05/04 07:54:24;;;;;;;0.00;0.00;;;9.40;99.90;;;;;;5000084;28;20120;-64
2022/05/04 07:56:52;;;;;;;0.00;0.00;;;9.70;99.90;;;;;;5000938;28;20496;-64
2022/05/04 07:59:18;;;;;;;0.00;0.00;;;9.50;99.90;;;;;;5003105;28;20508;-63
2022/05/04 08:04:28;;;;;;;0.00;0.00;;;9.90;99.90;;;;;;5002673;28;20096;-65
2022/05/04 08:06:53;;;;;;;0.00;0.00;;;10.20;99.90;;;;;;5003008;28;20066;-63
2022/05/04 08:09:19;;;;;;;0.10;0.10;;;10.30;99.90;;;;;;5003051;28;20055;-63
2022/05/04 08:11:45;;;;;;;0.00;0.00;;;10.70;99.90;;;;;;5001172;28;20104;-63
2022/05/04 08:14:12;;;;;;;0.00;0.00;;;11.00;99.90;;;;;;5002756;28;20679;-62
2022/05/04 08:16:39;;;;;;;0.00;0.00;;;11.40;99.90;;;;;;5003500;28;20088;-63
2022/05/04 08:19:06;;;;;;;0.00;0.00;;;11.30;99.90;;;;;;5003159;28;20515;-63
2022/05/04 08:21:32;;;;;;;0.00;0.00;;;11.20;99.90;;;;;;5002047;28;20065;-64
2022/05/04 08:23:59;;;;;;;0.00;0.00;;;11.60;99.90;;;;;;5003027;28;20713;-63
2022/05/04 08:26:24;;;;;;;0.00;0.00;;;11.30;99.90;;;;;;5002066;28;20045;-63
2022/05/04 08:28:51;;;;;;;0.00;0.00;;;11.40;99.90;;;;;;5002557;28;20057;-64
2022/05/04 08:31:17;;;;;;;0.00;0.00;;;11.40;99.90;;;;;;5002498;28;20119;-64
2022/05/04 08:33:43;;;;;;;0.00;0.00;;;11.50;99.90;;;;;;5002909;28;20099;-63
2022/05/04 08:36:09;;;;;;;0.00;0.00;;;11.60;99.90;;;;;;5003038;28;20444;-62
2022/05/04 08:38:35;;;;;;;0.00;0.00;;;11.80;99.90;;;;;;4999208;28;20159;-63
2022/05/04 08:41:02;;;;;;;0.00;0.00;;;11.90;99.90;;;;;;5019452;28;20038;-63
2022/05/04 08:43:31;;;;;;;0.00;0.00;;;12.00;99.90;;;;;;5021352;28;20122;-63
2022/05/04 08:46:00;;;;;;;0.00;0.00;;;12.20;99.90;;;;;;5015250;28;20046;-65
2022/05/04 08:48:27;;;;;;;0.00;0.00;;;12.20;99.90;;;;;;5012865;28;20049;-66
2022/05/04 08:50:54;;;;;;;0.00;0.00;;;12.20;99.90;;;;;;5020383;28;20045;-64
2022/05/04 08:53:20;;;;;;;0.00;0.00;;;12.10;99.90;;;;;;5021908;28;20034;-61
2022/05/04 08:55:47;;;;;;;0.00;0.00;;;11.90;99.90;;;;;;5020833;28;20520;-65
2022/05/04 08:58:13;;;;;;;0.00;0.00;;;12.30;99.90;;;;;;5022083;28;20033;-63
2022/05/04 09:00:39;;;;;;;0.00;0.00;;;12.80;99.90;;;;;;5022611;28;20049;-64
2022/05/04 09:03:07;;;;;;;0.00;0.00;;;13.10;99.90;;;;;;5021832;28;20053;-63
2022/05/04 09:05:40;;;;;;;0.00;0.00;;;13.40;99.90;;;;;;5020467;28;20456;-63
2022/05/04 09:08:07;;;;;;;0.00;0.00;;;13.50;99.90;;;;;;5021134;28;20128;-63
2022/05/04 09:10:38;;;;;;;0.00;0.00;;;13.30;99.90;;;;;;5020752;28;20092;-64
2022/05/04 09:13:04;;;;;;;0.00;0.00;;;13.10;99.90;;;;;;5021983;28;20046;-64
2022/05/04 09:15:34;;;;;;;0.00;0.00;;;13.30;99.90;;;;;;5021492;28;20044;-63
2022/05/04 09:18:05;;;;;;;0.00;0.00;;;13.50;99.90;;;;;;5021512;28;20049;-63
2022/05/04 09:20:45;;;;;;;0.00;0.00;;;13.60;99.90;;;;;;5021141;28;20556;-63
2022/05/04 09:23:12;;;;;;;0.00;0.00;;;14.00;99.90;;;;;;5021433;28;20072;-62
2022/05/04 09:25:38;;;;;;;0.00;0.00;;;13.70;99.90;;;;;;5020587;28;20131;-63
2022/05/04 09:28:09;;;;;;;0.00;0.00;;;13.90;99.90;;;;;;5020307;28;20053;-63
2022/05/04 09:30:35;;;;;;;0.00;0.00;;;13.90;99.90;;;;;;5021803;28;20084;-63
2022/05/04 09:33:02;;;;;;;0.00;0.00;;;13.70;99.90;;;;;;5021074;28;20045;-63
2022/05/04 09:35:32;;;;;;;0.00;0.00;;;14.20;99.90;;;;;;5021413;28;20439;-63
2022/05/04 09:46:11;;;;;;;0.00;0.00;;;14.50;99.90;;;;;;5014669;28;20052;-62
2022/05/04 09:48:36;;;;;;;0.00;0.00;;;14.30;99.90;;;;;;5005276;28;20519;-63
2022/05/04 09:51:04;;;;;;;0.00;0.00;;;14.30;99.90;;;;;;5001965;28;20054;-63
2022/05/04 09:53:30;;;;;;;0.00;0.00;;;14.40;99.90;;;;;;5000765;28;20701;-63
2022/05/04 09:55:57;;;;;;;0.00;0.00;;;14.80;99.90;;;;;;4999262;28;20125;-62
2022/05/04 09:58:27;;;;;;;0.00;0.00;;;15.00;99.90;;;;;;5001104;28;20088;-62
2022/05/04 10:00:54;;;;;;;0.00;0.00;;;15.50;99.90;;;;;;5000579;28;20042;-65
2022/05/04 10:03:21;;;;;;;0.00;0.00;;;15.90;99.90;;;;;;5000913;28;20133;-65
2022/05/04 10:05:48;;;;;;;0.00;0.00;;;15.70;99.90;;;;;;5000931;28;20058;-65
2022/05/04 10:08:15;;;;;;;0.00;0.00;;;15.40;99.90;;;;;;5000364;28;20432;-65
2022/05/04 10:10:41;;;;;;;0.00;0.00;;;15.10;99.90;;;;;;5000233;28;20116;-65
2022/05/04 10:13:08;;;;;;;0.00;0.00;;;15.00;99.90;;;;;;5001463;28;20413;-65
2022/05/04 10:15:36;;;;;;;0.00;0.00;;;15.00;99.90;;;;;;4999565;28;20053;-65
2022/05/04 10:18:16;;;;;;;0.00;0.00;;;15.10;99.90;;;;;;5000693;28;20045;-65
2022/05/04 10:20:48;;;;;;;0.00;0.00;;;15.30;99.90;;;;;;5000587;28;20041;-65
2022/05/04 10:23:21;;;;;;;0.00;0.00;;;15.10;99.90;;;;;;4999858;28;20046;-64
2022/05/04 10:25:47;;;;;;;0.00;0.00;;;15.10;99.90;;;;;;5000113;28;20520;-66
2022/05/04 10:28:14;;;;;;;0.00;0.00;;;15.30;99.90;;;;;;4999336;28;20034;-64
2022/05/04 10:31:12;;;;;;;0.00;0.00;;;15.60;99.90;;;;;;5000186;28;20046;-65
2022/05/04 10:33:38;;;;;;;0.00;0.00;;;16.10;99.90;;;;;;4999501;28;20104;-65
2022/05/04 10:36:15;;;;;;;0.00;0.00;;;16.00;99.90;;;;;;5000345;28;20045;-70
2022/05/04 10:38:45;;;;;;;0.00;0.00;;;15.90;99.90;;;;;;5000980;28;20496;-65
2022/05/04 10:41:12;;;;;;;0.00;0.00;;;15.80;99.90;;;;;;4999845;28;20046;-65
2022/05/04 10:43:43;;;;;;;0.00;0.00;;;16.10;99.90;;;;;;5000782;28;20046;-63
2022/05/04 10:46:21;;;;;;;0.00;0.00;;;16.40;99.90;;;;;;5007690;28;20084;-63
2022/05/04 10:49:05;;;;;;;0.00;0.00;;;16.90;99.90;;;;;;5002003;28;20042;-63
2022/05/04 10:51:35;;;;;;;0.00;0.00;;;17.00;99.90;;;;;;5000151;28;20053;-63
2022/05/04 10:54:28;;;;;;;0.00;0.00;;;16.90;99.90;;;;;;5000308;28;20050;-62
2022/05/04 10:56:54;;;;;;;0.10;0.10;;;17.20;99.90;;;;;;4997944;28;20464;-71
2022/05/04 10:59:31;;;;;;;0.00;0.00;;;17.50;99.90;;;;;;5000277;28;20046;-70
2022/05/04 11:02:04;;;;;;;0.00;0.00;;;17.20;99.90;;;;;;5000431;28;20121;-74
2022/05/04 11:04:30;;;;;;;0.00;0.00;;;17.40;99.90;;;;;;5000447;28;20414;-68
2022/05/04 11:07:07;;;;;;;0.00;0.00;;;17.80;99.90;;;;;;4999318;28;20054;-67
2022/05/04 11:09:39;;;;;;;0.00;0.00;;;18.00;99.90;;;;;;5000103;28;20049;-68
2022/05/04 11:12:07;;;;;;;0.00;0.00;;;17.80;99.90;;;;;;5000020;28;20120;-67
2022/05/04 11:14:34;;;;;;;0.00;0.00;;;18.10;99.90;;;;;;4999465;28;20076;-68
2022/05/04 11:17:00;;;;;;;0.00;0.00;;;17.90;99.90;;;;;;5000182;28;20365;-67
2022/05/04 11:19:32;;;;;;;0.00;0.00;;;17.90;99.90;;;;;;5000045;28;20112;-68
2022/05/04 11:21:58;;;;;;;0.00;0.00;;;17.70;99.90;;;;;;4998003;28;20049;-67
2022/05/04 11:24:28;;;;;;;0.00;0.00;;;17.50;99.90;;;;;;5000127;28;20046;-67
2022/05/04 11:26:55;;;;;;;0.00;0.00;;;17.50;99.90;;;;;;4999333;28;20073;-67
2022/05/04 11:29:24;;;;;;;0.00;0.00;;;17.00;99.90;;;;;;4999054;28;20046;-67
2022/05/04 11:32:05;;;;;;;0.00;0.00;;;17.00;99.90;;;;;;5001927;28;20104;-67
2022/05/04 11:34:35;;;;;;;0.00;0.00;;;17.20;99.90;;;;;;5003829;28;20505;-67
2022/05/04 11:37:07;;;;;;;0.10;0.10;;;17.40;99.90;;;;;;5009489;28;20494;-66
2022/05/04 11:39:33;;;;;;;0.00;0.00;;;17.70;99.90;;;;;;5021530;28;20247;-66
2022/05/04 11:42:00;;;;;;;0.00;0.00;;;17.60;99.90;;;;;;5020708;28;20072;-67
2022/05/04 11:44:28;;;;;;;0.00;0.00;;;17.70;99.90;;;;;;5021023;28;20037;-66
2022/05/04 11:46:56;;;;;;;0.00;0.00;;;17.70;99.90;;;;;;5015384;28;20037;-66
2022/05/04 11:49:24;;;;;;;0.00;0.00;;;18.00;99.90;;;;;;5003394;28;20489;-67
2022/05/04 11:51:51;;;;;;;0.00;0.00;;;17.40;99.90;;;;;;5003023;28;20042;-65
2022/05/04 11:54:17;;;;;;;0.00;0.00;;;17.60;99.90;;;;;;5008823;28;20077;-64
2022/05/04 11:56:42;;;;;;;0.00;0.00;;;17.40;99.90;;;;;;5022201;28;20084;-64
2022/05/04 11:59:08;;;;;;;0.03;0.03;;;17.40;99.90;;;;;;5022755;28;20665;-64
2022/05/04 12:01:38;;;;;;;0.00;0.00;;;17.50;99.90;;;;;;5022205;28;20124;-64
2022/05/04 12:04:05;;;;;;;0.00;0.00;;;17.30;99.90;;;;;;5022381;28;20439;-66
2022/05/04 12:06:32;;;;;;;0.00;0.00;;;17.00;99.90;;;;;;5022474;28;20747;-65
2022/05/04 12:08:59;;;;;;;0.00;0.00;;;17.10;99.90;;;;;;5020773;28;20049;-66
2022/05/04 12:11:25;;;;;;;0.00;0.00;;;17.10;99.90;;;;;;5022212;28;20045;-66
2022/05/04 12:13:50;;;;;;;0.00;0.00;;;17.10;99.90;;;;;;5021434;28;20132;-67
2022/05/04 12:16:16;;;;;;;0.00;0.00;;;16.90;99.90;;;;;;5022170;28;20045;-67
2022/05/04 12:18:43;;;;;;;0.00;0.00;;;17.30;99.90;;;;;;5020282;28;20049;-67
2022/05/04 12:21:09;;;;;;;0.00;0.00;;;17.20;99.90;;;;;;5021130;28;20487;-67
2022/05/04 12:23:36;;;;;;;0.00;0.00;;;17.20;99.90;;;;;;5022365;28;20053;-67
2022/05/04 12:26:03;;;;;;;0.00;0.00;;;17.20;99.90;;;;;;5021694;28;20045;-67
2022/05/04 12:28:29;;;;;;;0.00;0.00;;;17.00;99.90;;;;;;5021993;28;20110;-66
2022/05/04 12:33:41;;;;;;;0.00;0.00;;;17.10;99.90;;;;;;5021847;28;20103;-67
2022/05/04 12:36:12;;;;;;;0.00;0.00;;;17.00;99.90;;;;;;5021470;28;20045;-79
2022/05/04 12:38:45;;;;;;;0.00;0.00;;;17.30;99.90;;;;;;5022382;28;20043;-80
2022/05/04 12:41:13;;;;;;;0.00;0.00;;;17.50;99.90;;;;;;5020830;28;20446;-78
2022/05/04 12:43:39;;;;;;;0.00;0.00;;;17.80;99.90;;;;;;5022542;28;20049;-78
2022/05/04 12:46:12;;;;;;;0.00;0.00;;;17.80;99.90;;;;;;5016093;28;20041;-79
2022/05/04 12:48:43;;;;;;;0.00;0.00;;;17.80;99.90;;;;;;5005456;28;20058;-79
2022/05/04 12:51:09;;;;;;;0.00;0.00;;;17.70;99.90;;;;;;5002635;28;20400;-81
2022/05/04 12:53:38;;;;;;;0.00;0.00;;;17.50;99.90;;;;;;5001478;28;20126;-81
2022/05/04 12:58:49;;;;;;;0.00;0.00;;;17.10;99.90;;;;;;5002166;28;20054;-62
2022/05/04 13:01:15;;;;;;;0.00;0.00;;;17.00;99.90;;;;;;5002224;28;20041;-62
2022/05/04 13:03:40;;;;;;;0.00;0.00;;;17.10;99.90;;;;;;5001361;28;20044;-63
2022/05/04 13:06:06;;;;;;;0.00;0.00;;;17.10;99.90;;;;;;5003391;28;20046;-62
2022/05/04 13:08:32;;;;;;;0.00;0.00;;;17.10;99.90;;;;;;5006215;28;20041;-62
2022/05/04 13:10:58;;;;;;;0.00;0.00;;;17.00;99.90;;;;;;5004005;28;20048;-62
2022/05/04 13:13:25;;;;;;;0.00;0.00;;;17.10;99.90;;;;;;5006353;28;20030;-63
2022/05/04 13:15:51;;;;;;;0.00;0.00;;;17.00;99.90;;;;;;5006524;28;20053;-62
2022/05/04 13:18:21;;;;;;;0.00;0.00;;;17.00;99.90;;;;;;5005913;28;20052;-63
2022/05/04 13:20:48;;;;;;;0.00;0.00;;;16.80;99.90;;;;;;5005157;28;20548;-63
2022/05/04 13:23:14;;;;;;;0.00;0.00;;;16.90;99.90;;;;;;5006540;28;20522;-62
2022/05/04 13:25:40;;;;;;;0.10;0.10;;;17.20;99.90;;;;;;5004184;28;20125;-63
2022/05/04 13:28:06;;;;;;;0.00;0.00;;;17.10;99.90;;;;;;5006732;28;20128;-62
2022/05/04 13:30:32;;;;;;;0.00;0.00;;;16.90;99.90;;;;;;5006548;28;20481;-62
2022/05/04 13:32:58;;;;;;;0.00;0.00;;;16.90;99.90;;;;;;5006657;28;20286;-63